sensor_id;sensor_type;location;lat;lon;timestamp;pressure;altitude;pressure_sealevel;temperature
33267;BMP180;19638;49.080;11.896;2022-10-16T00:03:51;96290.00;;;15.70
33267;BMP180;19638;49.080;11.896;2022-10-16T00:07:58;96290.00;;;15.70
33267;BMP180;19638;49.080;11.896;2022-10-16T00:12:02;96296.00;;;15.70
33267;BMP180;19638;49.080;11.896;2022-10-16T00:16:06;96293.00;;;15.70
33267;BMP180;19638;49.080;11.896;2022-10-16T00:20:41;96294.00;;;15.80
33267;BMP180;19638;49.080;11.896;2022-10-16T00:24:45;96305.00;;;15.80
33267;BMP180;19638;49.080;11.896;2022-10-16T00:28:50;96302.00;;;15.80
33267;BMP180;19638;49.080;11.896;2022-10-16T00:32:54;96296.00;;;15.80
33267;BMP180;19638;49.080;11.896;2022-10-16T00:36:57;96283.00;;;15.70
33267;BMP180;19638;49.080;11.896;2022-10-16T00:41:35;96293.00;;;15.70
33267;BMP180;19638;49.080;11.896;2022-10-16T00:45:39;96289.00;;;15.70
33267;BMP180;19638;49.080;11.896;2022-10-16T00:49:42;96279.00;;;15.70
33267;BMP180;19638;49.080;11.896;2022-10-16T00:53:45;96294.00;;;15.70
33267;BMP180;19638;49.080;11.896;2022-10-16T00:58:24;96301.00;;;15.70
33267;BMP180;19638;49.080;11.896;2022-10-16T01:02:27;96295.00;;;15.70
33267;BMP180;19638;49.080;11.896;2022-10-16T01:06:36;96290.00;;;15.70
33267;BMP180;19638;49.080;11.896;2022-10-16T01:11:05;96296.00;;;15.70
33267;BMP180;19638;49.080;11.896;2022-10-16T01:15:18;96308.00;;;15.70
33267;BMP180;19638;49.080;11.896;2022-10-16T01:19:35;96314.00;;;15.70
33267;BMP180;19638;49.080;11.896;2022-10-16T01:23:49;96312.00;;;15.70
33267;BMP180;19638;49.080;11.896;2022-10-16T01:27:57;96324.00;;;15.70
33267;BMP180;19638;49.080;11.896;2022-10-16T01:36:37;96321.00;;;15.70
33267;BMP180;19638;49.080;11.896;2022-10-16T01:40:45;96323.00;;;15.70
33267;BMP180;19638;49.080;11.896;2022-10-16T01:49:23;96328.00;;;15.80
33267;BMP180;19638;49.080;11.896;2022-10-16T01:53:28;96328.00;;;15.70
33267;BMP180;19638;49.080;11.896;2022-10-16T01:57:34;96330.00;;;15.70
33267;BMP180;19638;49.080;11.896;2022-10-16T02:01:43;96340.00;;;15.70
33267;BMP180;19638;49.080;11.896;2022-10-16T02:06:17;96333.00;;;15.60
33267;BMP180;19638;49.080;11.896;2022-10-16T02:10:21;96338.00;;;15.60
33267;BMP180;19638;49.080;11.896;2022-10-16T02:14:26;96342.00;;;15.60
33267;BMP180;19638;49.080;11.896;2022-10-16T02:18:29;96339.00;;;15.60
33267;BMP180;19638;49.080;11.896;2022-10-16T02:27:11;96338.00;;;15.60
33267;BMP180;19638;49.080;11.896;2022-10-16T02:31:18;96323.00;;;15.60
33267;BMP180;19638;49.080;11.896;2022-10-16T02:35:25;96332.00;;;15.60
33267;BMP180;19638;49.080;11.896;2022-10-16T02:39:34;96341.00;;;15.60
33267;BMP180;19638;49.080;11.896;2022-10-16T02:43:39;96358.00;;;15.50
33267;BMP180;19638;49.080;11.896;2022-10-16T02:47:42;96360.00;;;15.50
33267;BMP180;19638;49.080;11.896;2022-10-16T02:51:45;96354.00;;;15.60
33267;BMP180;19638;49.080;11.896;2022-10-16T03:00:27;96339.00;;;15.60
33267;BMP180;19638;49.080;11.896;2022-10-16T03:05:00;96353.00;;;15.50
33267;BMP180;19638;49.080;11.896;2022-10-16T03:09:04;96371.00;;;15.60
33267;BMP180;19638;49.080;11.896;2022-10-16T03:13:07;96366.00;;;15.60
33267;BMP180;19638;49.080;11.896;2022-10-16T03:17:11;96356.00;;;15.60
33267;BMP180;19638;49.080;11.896;2022-10-16T03:21:45;96368.00;;;15.70
33267;BMP180;19638;49.080;11.896;2022-10-16T03:25:48;96363.00;;;15.70
33267;BMP180;19638;49.080;11.896;2022-10-16T03:29:51;96356.00;;;15.70
33267;BMP180;19638;49.080;11.896;2022-10-16T03:34:30;96357.00;;;15.70
33267;BMP180;19638;49.080;11.896;2022-10-16T03:38:33;96360.00;;;15.70
33267;BMP180;19638;49.080;11.896;2022-10-16T03:42:36;96353.00;;;15.70
33267;BMP180;19638;49.080;11.896;2022-10-16T03:47:13;96345.00;;;15.60
33267;BMP180;19638;49.080;11.896;2022-10-16T03:51:18;96362.00;;;15.50
33267;BMP180;19638;49.080;11.896;2022-10-16T03:55:21;96362.00;;;15.40
33267;BMP180;19638;49.080;11.896;2022-10-16T03:59:24;96363.00;;;15.30
33267;BMP180;19638;49.080;11.896;2022-10-16T04:03:27;96371.00;;;15.10
33267;BMP180;19638;49.080;11.896;2022-10-16T04:07:32;96376.00;;;15.10
33267;BMP180;19638;49.080;11.896;2022-10-16T04:11:35;96380.00;;;15.00
33267;BMP180;19638;49.080;11.896;2022-10-16T04:16:11;96380.00;;;15.00
33267;BMP180;19638;49.080;11.896;2022-10-16T04:20:14;96380.00;;;15.10
33267;BMP180;19638;49.080;11.896;2022-10-16T04:24:25;96376.00;;;15.10
33267;BMP180;19638;49.080;11.896;2022-10-16T04:28:58;96383.00;;;15.00
33267;BMP180;19638;49.080;11.896;2022-10-16T04:33:02;96379.00;;;15.00
33267;BMP180;19638;49.080;11.896;2022-10-16T04:37:05;96390.00;;;15.00
33267;BMP180;19638;49.080;11.896;2022-10-16T04:41:10;96391.00;;;15.00
33267;BMP180;19638;49.080;11.896;2022-10-16T04:45:13;96389.00;;;15.00
33267;BMP180;19638;49.080;11.896;2022-10-16T04:49:17;96391.00;;;15.00
33267;BMP180;19638;49.080;11.896;2022-10-16T04:53:21;96397.00;;;15.00
33267;BMP180;19638;49.080;11.896;2022-10-16T04:57:25;96399.00;;;15.00
33267;BMP180;19638;49.080;11.896;2022-10-16T05:01:31;96396.00;;;15.00
33267;BMP180;19638;49.080;11.896;2022-10-16T05:06:05;96399.00;;;15.10
33267;BMP180;19638;49.080;11.896;2022-10-16T05:10:08;96399.00;;;15.10
33267;BMP180;19638;49.080;11.896;2022-10-16T05:14:13;96404.00;;;15.10
33267;BMP180;19638;49.080;11.896;2022-10-16T05:18:16;96416.00;;;15.10
33267;BMP180;19638;49.080;11.896;2022-10-16T05:22:50;96415.00;;;15.10
33267;BMP180;19638;49.080;11.896;2022-10-16T05:26:54;96408.00;;;15.10
33267;BMP180;19638;49.080;11.896;2022-10-16T05:30:58;96396.00;;;15.20
33267;BMP180;19638;49.080;11.896;2022-10-16T05:35:02;96368.00;;;15.20
33267;BMP180;19638;49.080;11.896;2022-10-16T05:39:10;96378.00;;;15.20
33267;BMP180;19638;49.080;11.896;2022-10-16T05:43:14;96395.00;;;15.10
33267;BMP180;19638;49.080;11.896;2022-10-16T05:47:18;96391.00;;;15.10
33267;BMP180;19638;49.080;11.896;2022-10-16T05:51:53;96394.00;;;15.00
33267;BMP180;19638;49.080;11.896;2022-10-16T05:55:56;96408.00;;;15.00
33267;BMP180;19638;49.080;11.896;2022-10-16T06:00:33;96396.00;;;14.90
33267;BMP180;19638;49.080;11.896;2022-10-16T06:05:11;96407.00;;;14.90
33267;BMP180;19638;49.080;11.896;2022-10-16T06:09:48;96417.00;;;14.90
33267;BMP180;19638;49.080;11.896;2022-10-16T06:13:53;96419.00;;;15.00
33267;BMP180;19638;49.080;11.896;2022-10-16T06:17:58;96425.00;;;15.10
33267;BMP180;19638;49.080;11.896;2022-10-16T06:22:02;96440.00;;;15.10
33267;BMP180;19638;49.080;11.896;2022-10-16T06:26:36;96442.00;;;15.10
33267;BMP180;19638;49.080;11.896;2022-10-16T06:31:14;96453.00;;;15.20
33267;BMP180;19638;49.080;11.896;2022-10-16T06:35:17;96466.00;;;15.20
33267;BMP180;19638;49.080;11.896;2022-10-16T06:39:22;96479.00;;;15.30
33267;BMP180;19638;49.080;11.896;2022-10-16T06:43:25;96483.00;;;15.40
33267;BMP180;19638;49.080;11.896;2022-10-16T06:48:02;96494.00;;;15.50
33267;BMP180;19638;49.080;11.896;2022-10-16T06:52:05;96504.00;;;15.60
33267;BMP180;19638;49.080;11.896;2022-10-16T06:56:11;96508.00;;;15.80
33267;BMP180;19638;49.080;11.896;2022-10-16T07:00:43;96506.00;;;16.00
33267;BMP180;19638;49.080;11.896;2022-10-16T07:05:19;96516.00;;;16.30
33267;BMP180;19638;49.080;11.896;2022-10-16T07:09:56;96522.00;;;16.30
33267;BMP180;19638;49.080;11.896;2022-10-16T07:14:35;96525.00;;;16.50
33267;BMP180;19638;49.080;11.896;2022-10-16T07:24:11;96529.00;;;16.60
33267;BMP180;19638;49.080;11.896;2022-10-16T07:33:23;96530.00;;;16.70
33267;BMP180;19638;49.080;11.896;2022-10-16T07:37:57;96532.00;;;16.90
33267;BMP180;19638;49.080;11.896;2022-10-16T07:46:37;96543.00;;;17.60
33267;BMP180;19638;49.080;11.896;2022-10-16T07:50:41;96552.00;;;17.80
33267;BMP180;19638;49.080;11.896;2022-10-16T07:55:15;96548.00;;;18.00
33267;BMP180;19638;49.080;11.896;2022-10-16T07:59:52;96559.00;;;18.10
33267;BMP180;19638;49.080;11.896;2022-10-16T08:04:29;96565.00;;;18.20
33267;BMP180;19638;49.080;11.896;2022-10-16T08:09:07;96571.00;;;18.40
33267;BMP180;19638;49.080;11.896;2022-10-16T08:13:41;96568.00;;;18.80
33267;BMP180;19638;49.080;11.896;2022-10-16T08:18:19;96568.00;;;19.00
33267;BMP180;19638;49.080;11.896;2022-10-16T08:27:55;96588.00;;;19.10
33267;BMP180;19638;49.080;11.896;2022-10-16T08:31:58;96579.00;;;19.10
33267;BMP180;19638;49.080;11.896;2022-10-16T08:36:35;96573.00;;;19.10
33267;BMP180;19638;49.080;11.896;2022-10-16T08:40:42;96571.00;;;19.20
33267;BMP180;19638;49.080;11.896;2022-10-16T08:45:21;96567.00;;;19.30
33267;BMP180;19638;49.080;11.896;2022-10-16T08:49:55;96569.00;;;19.10
33267;BMP180;19638;49.080;11.896;2022-10-16T08:54:28;96562.00;;;18.90
33267;BMP180;19638;49.080;11.896;2022-10-16T08:59:03;96573.00;;;18.70
33267;BMP180;19638;49.080;11.896;2022-10-16T09:08:25;96576.00;;;18.30
33267;BMP180;19638;49.080;11.896;2022-10-16T09:12:37;96575.00;;;18.30
33267;BMP180;19638;49.080;11.896;2022-10-16T09:21:59;96588.00;;;18.70
33267;BMP180;19638;49.080;11.896;2022-10-16T09:26:33;96598.00;;;19.00
33267;BMP180;19638;49.080;11.896;2022-10-16T09:30:37;96601.00;;;19.20
33267;BMP180;19638;49.080;11.896;2022-10-16T09:35:13;96610.00;;;19.50
33267;BMP180;19638;49.080;11.896;2022-10-16T09:39:47;96615.00;;;19.90
33267;BMP180;19638;49.080;11.896;2022-10-16T09:44:24;96615.00;;;20.20
33267;BMP180;19638;49.080;11.896;2022-10-16T09:48:59;96619.00;;;20.50
33267;BMP180;19638;49.080;11.896;2022-10-16T09:53:08;96620.00;;;20.70
33267;BMP180;19638;49.080;11.896;2022-10-16T09:57:47;96629.00;;;21.00
33267;BMP180;19638;49.080;11.896;2022-10-16T10:02:17;96628.00;;;21.20
33267;BMP180;19638;49.080;11.896;2022-10-16T10:06:52;96622.00;;;21.40
33267;BMP180;19638;49.080;11.896;2022-10-16T10:10:58;96614.00;;;21.80
33267;BMP180;19638;49.080;11.896;2022-10-16T10:15:35;96625.00;;;22.10
33267;BMP180;19638;49.080;11.896;2022-10-16T10:19:44;96627.00;;;22.40
33267;BMP180;19638;49.080;11.896;2022-10-16T10:23:55;96627.00;;;22.60
33267;BMP180;19638;49.080;11.896;2022-10-16T10:28:27;96635.00;;;22.70
33267;BMP180;19638;49.080;11.896;2022-10-16T10:32:37;96631.00;;;22.80
33267;BMP180;19638;49.080;11.896;2022-10-16T10:37:12;96631.00;;;22.80
33267;BMP180;19638;49.080;11.896;2022-10-16T10:46:25;96633.00;;;23.10
33267;BMP180;19638;49.080;11.896;2022-10-16T10:50:56;96634.00;;;23.40
33267;BMP180;19638;49.080;11.896;2022-10-16T11:00:16;96629.00;;;23.70
33267;BMP180;19638;49.080;11.896;2022-10-16T11:04:50;96630.00;;;23.80
33267;BMP180;19638;49.080;11.896;2022-10-16T11:09:25;96631.00;;;23.90
33267;BMP180;19638;49.080;11.896;2022-10-16T11:14:02;96631.00;;;23.90
33267;BMP180;19638;49.080;11.896;2022-10-16T11:18:41;96637.00;;;23.90
33267;BMP180;19638;49.080;11.896;2022-10-16T11:23:15;96632.00;;;23.90
33267;BMP180;19638;49.080;11.896;2022-10-16T11:27:50;96639.00;;;24.10
33267;BMP180;19638;49.080;11.896;2022-10-16T11:32:27;96633.00;;;24.10
33267;BMP180;19638;49.080;11.896;2022-10-16T11:37:05;96633.00;;;24.10
33267;BMP180;19638;49.080;11.896;2022-10-16T11:41:42;96631.00;;;24.20
33267;BMP180;19638;49.080;11.896;2022-10-16T11:50:52;96628.00;;;24.30
33267;BMP180;19638;49.080;11.896;2022-10-16T11:55:29;96627.00;;;24.30
33267;BMP180;19638;49.080;11.896;2022-10-16T12:00:04;96625.00;;;24.50
33267;BMP180;19638;49.080;11.896;2022-10-16T12:04:39;96625.00;;;24.50
33267;BMP180;19638;49.080;11.896;2022-10-16T12:14:03;96631.00;;;24.60
33267;BMP180;19638;49.080;11.896;2022-10-16T12:18:28;96628.00;;;24.70
33267;BMP180;19638;49.080;11.896;2022-10-16T12:23:05;96626.00;;;24.80
33267;BMP180;19638;49.080;11.896;2022-10-16T12:32:24;96639.00;;;24.20
33267;BMP180;19638;49.080;11.896;2022-10-16T12:36:47;96650.00;;;24.00
33267;BMP180;19638;49.080;11.896;2022-10-16T12:41:25;96646.00;;;23.80
33267;BMP180;19638;49.080;11.896;2022-10-16T12:46:00;96643.00;;;23.60
33267;BMP180;19638;49.080;11.896;2022-10-16T12:50:24;96644.00;;;23.40
33267;BMP180;19638;49.080;11.896;2022-10-16T12:54:31;96646.00;;;23.30
33267;BMP180;19638;49.080;11.896;2022-10-16T12:59:06;96659.00;;;23.30
33267;BMP180;19638;49.080;11.896;2022-10-16T13:08:17;96661.00;;;23.40
33267;BMP180;19638;49.080;11.896;2022-10-16T13:12:57;96652.00;;;23.60
33267;BMP180;19638;49.080;11.896;2022-10-16T13:17:11;96654.00;;;23.70
33267;BMP180;19638;49.080;11.896;2022-10-16T13:21:29;96652.00;;;23.70
33267;BMP180;19638;49.080;11.896;2022-10-16T13:25:44;96659.00;;;23.80
33267;BMP180;19638;49.080;11.896;2022-10-16T13:29:52;96655.00;;;23.70
33267;BMP180;19638;49.080;11.896;2022-10-16T13:34:24;96653.00;;;23.70
33267;BMP180;19638;49.080;11.896;2022-10-16T13:38:29;96665.00;;;23.70
33267;BMP180;19638;49.080;11.896;2022-10-16T13:42:35;96663.00;;;23.90
33267;BMP180;19638;49.080;11.896;2022-10-16T13:51:28;96681.00;;;23.90
33267;BMP180;19638;49.080;11.896;2022-10-16T13:56:03;96691.00;;;23.90
33267;BMP180;19638;49.080;11.896;2022-10-16T14:05:17;96672.00;;;24.00
33267;BMP180;19638;49.080;11.896;2022-10-16T14:09:51;96681.00;;;24.10
33267;BMP180;19638;49.080;11.896;2022-10-16T14:19:04;96692.00;;;24.20
33267;BMP180;19638;49.080;11.896;2022-10-16T14:23:40;96677.00;;;24.30
33267;BMP180;19638;49.080;11.896;2022-10-16T14:28:15;96684.00;;;24.30
33267;BMP180;19638;49.080;11.896;2022-10-16T14:32:23;96685.00;;;24.40
33267;BMP180;19638;49.080;11.896;2022-10-16T14:36:27;96686.00;;;24.40
33267;BMP180;19638;49.080;11.896;2022-10-16T14:45:09;96695.00;;;24.50
33267;BMP180;19638;49.080;11.896;2022-10-16T14:49:15;96687.00;;;24.40
33267;BMP180;19638;49.080;11.896;2022-10-16T14:53:49;96690.00;;;24.40
33267;BMP180;19638;49.080;11.896;2022-10-16T14:57:55;96701.00;;;24.30
33267;BMP180;19638;49.080;11.896;2022-10-16T15:02:30;96689.00;;;24.30
33267;BMP180;19638;49.080;11.896;2022-10-16T15:06:35;96690.00;;;24.30
33267;BMP180;19638;49.080;11.896;2022-10-16T15:11:11;96688.00;;;24.20
33267;BMP180;19638;49.080;11.896;2022-10-16T15:15:25;96688.00;;;24.00
33267;BMP180;19638;49.080;11.896;2022-10-16T15:19:31;96693.00;;;23.80
33267;BMP180;19638;49.080;11.896;2022-10-16T15:23:41;96697.00;;;23.70
33267;BMP180;19638;49.080;11.896;2022-10-16T15:27:44;96695.00;;;23.50
33267;BMP180;19638;49.080;11.896;2022-10-16T15:32:21;96701.00;;;23.20
33267;BMP180;19638;49.080;11.896;2022-10-16T15:37:01;96704.00;;;22.90
33267;BMP180;19638;49.080;11.896;2022-10-16T15:41:05;96718.00;;;22.60
33267;BMP180;19638;49.080;11.896;2022-10-16T15:45:42;96710.00;;;22.30
33267;BMP180;19638;49.080;11.896;2022-10-16T15:50:19;96709.00;;;21.80
33267;BMP180;19638;49.080;11.896;2022-10-16T15:54:57;96711.00;;;21.30
33267;BMP180;19638;49.080;11.896;2022-10-16T15:59:31;96714.00;;;21.00
33267;BMP180;19638;49.080;11.896;2022-10-16T16:04:08;96713.00;;;20.60
33267;BMP180;19638;49.080;11.896;2022-10-16T16:08:45;96722.00;;;20.40
33267;BMP180;19638;49.080;11.896;2022-10-16T16:13:23;96712.00;;;20.30
33267;BMP180;19638;49.080;11.896;2022-10-16T16:18:00;96708.00;;;20.20
33267;BMP180;19638;49.080;11.896;2022-10-16T16:27:28;96719.00;;;20.10
33267;BMP180;19638;49.080;11.896;2022-10-16T16:32:07;96717.00;;;20.00
33267;BMP180;19638;49.080;11.896;2022-10-16T16:36:41;96721.00;;;20.00
33267;BMP180;19638;49.080;11.896;2022-10-16T16:41:19;96728.00;;;19.80
33267;BMP180;19638;49.080;11.896;2022-10-16T16:45:53;96739.00;;;19.70
33267;BMP180;19638;49.080;11.896;2022-10-16T16:59:46;96761.00;;;19.00
33267;BMP180;19638;49.080;11.896;2022-10-16T17:09:00;96760.00;;;18.50
33267;BMP180;19638;49.080;11.896;2022-10-16T17:13:35;96770.00;;;18.30
33267;BMP180;19638;49.080;11.896;2022-10-16T17:18:11;96763.00;;;18.10
33267;BMP180;19638;49.080;11.896;2022-10-16T17:22:14;96771.00;;;18.00
33267;BMP180;19638;49.080;11.896;2022-10-16T17:26:18;96781.00;;;18.10
33267;BMP180;19638;49.080;11.896;2022-10-16T17:30:23;96782.00;;;18.00
33267;BMP180;19638;49.080;11.896;2022-10-16T17:35:01;96786.00;;;18.00
33267;BMP180;19638;49.080;11.896;2022-10-16T17:39:35;96796.00;;;18.10
33267;BMP180;19638;49.080;11.896;2022-10-16T17:44:12;96796.00;;;18.20
33267;BMP180;19638;49.080;11.896;2022-10-16T17:53:27;96798.00;;;18.30
33267;BMP180;19638;49.080;11.896;2022-10-16T17:58:00;96822.00;;;18.40
33267;BMP180;19638;49.080;11.896;2022-10-16T18:02:37;96826.00;;;18.50
33267;BMP180;19638;49.080;11.896;2022-10-16T18:11:54;96848.00;;;18.70
33267;BMP180;19638;49.080;11.896;2022-10-16T18:16:29;96848.00;;;18.70
33267;BMP180;19638;49.080;11.896;2022-10-16T18:20:32;96841.00;;;18.80
33267;BMP180;19638;49.080;11.896;2022-10-16T18:25:09;96841.00;;;18.80
33267;BMP180;19638;49.080;11.896;2022-10-16T18:29:48;96843.00;;;18.80
33267;BMP180;19638;49.080;11.896;2022-10-16T18:48:20;96837.00;;;18.80
33267;BMP180;19638;49.080;11.896;2022-10-16T18:52:54;96833.00;;;18.90
33267;BMP180;19638;49.080;11.896;2022-10-16T19:02:11;96845.00;;;18.90
33267;BMP180;19638;49.080;11.896;2022-10-16T19:06:44;96844.00;;;18.90
33267;BMP180;19638;49.080;11.896;2022-10-16T19:15:55;96857.00;;;19.00
33267;BMP180;19638;49.080;11.896;2022-10-16T19:20:31;96861.00;;;19.00
33267;BMP180;19638;49.080;11.896;2022-10-16T19:24:36;96863.00;;;19.00
33267;BMP180;19638;49.080;11.896;2022-10-16T19:29:14;96866.00;;;18.90
33267;BMP180;19638;49.080;11.896;2022-10-16T19:33:50;96867.00;;;18.90
33267;BMP180;19638;49.080;11.896;2022-10-16T19:37:55;96871.00;;;18.90
33267;BMP180;19638;49.080;11.896;2022-10-16T19:42:33;96864.00;;;18.90
33267;BMP180;19638;49.080;11.896;2022-10-16T19:47:08;96861.00;;;18.90
33267;BMP180;19638;49.080;11.896;2022-10-16T19:51:46;96869.00;;;18.90
33267;BMP180;19638;49.080;11.896;2022-10-16T19:56:24;96863.00;;;18.80
33267;BMP180;19638;49.080;11.896;2022-10-16T20:01:00;96871.00;;;18.80
33267;BMP180;19638;49.080;11.896;2022-10-16T20:05:04;96879.00;;;18.90
33267;BMP180;19638;49.080;11.896;2022-10-16T20:09:07;96898.00;;;18.90
33267;BMP180;19638;49.080;11.896;2022-10-16T20:13:44;96902.00;;;18.90
33267;BMP180;19638;49.080;11.896;2022-10-16T20:18:23;96905.00;;;18.80
33267;BMP180;19638;49.080;11.896;2022-10-16T20:22:26;96908.00;;;18.80
33267;BMP180;19638;49.080;11.896;2022-10-16T20:26:29;96910.00;;;18.70
33267;BMP180;19638;49.080;11.896;2022-10-16T20:31:07;96899.00;;;18.60
33267;BMP180;19638;49.080;11.896;2022-10-16T20:39:47;96896.00;;;18.50
33267;BMP180;19638;49.080;11.896;2022-10-16T20:44:20;96906.00;;;18.50
33267;BMP180;19638;49.080;11.896;2022-10-16T20:48:23;96902.00;;;18.40
33267;BMP180;19638;49.080;11.896;2022-10-16T20:53:00;96909.00;;;18.30
33267;BMP180;19638;49.080;11.896;2022-10-16T20:57:05;96908.00;;;18.20
33267;BMP180;19638;49.080;11.896;2022-10-16T21:01:11;96922.00;;;18.10
33267;BMP180;19638;49.080;11.896;2022-10-16T21:05:14;96932.00;;;18.00
33267;BMP180;19638;49.080;11.896;2022-10-16T21:09:53;96930.00;;;17.90
33267;BMP180;19638;49.080;11.896;2022-10-16T21:14:00;96935.00;;;17.60
33267;BMP180;19638;49.080;11.896;2022-10-16T21:18:03;96938.00;;;17.40
33267;BMP180;19638;49.080;11.896;2022-10-16T21:22:40;96945.00;;;17.30
33267;BMP180;19638;49.080;11.896;2022-10-16T21:26:43;96941.00;;;17.20
33267;BMP180;19638;49.080;11.896;2022-10-16T21:35:25;96942.00;;;16.80
33267;BMP180;19638;49.080;11.896;2022-10-16T21:44:02;96941.00;;;16.40
33267;BMP180;19638;49.080;11.896;2022-10-16T21:48:06;96949.00;;;16.20
33267;BMP180;19638;49.080;11.896;2022-10-16T21:52:27;96946.00;;;16.20
33267;BMP180;19638;49.080;11.896;2022-10-16T21:56:31;96947.00;;;16.20
33267;BMP180;19638;49.080;11.896;2022-10-16T22:00:35;96948.00;;;16.20
33267;BMP180;19638;49.080;11.896;2022-10-16T22:04:38;96951.00;;;16.30
33267;BMP180;19638;49.080;11.896;2022-10-16T22:08:45;96954.00;;;16.30
33267;BMP180;19638;49.080;11.896;2022-10-16T22:12:48;96949.00;;;16.40
33267;BMP180;19638;49.080;11.896;2022-10-16T22:21:32;96951.00;;;16.50
33267;BMP180;19638;49.080;11.896;2022-10-16T22:25:37;96946.00;;;16.50
33267;BMP180;19638;49.080;11.896;2022-10-16T22:29:40;96956.00;;;16.50
33267;BMP180;19638;49.080;11.896;2022-10-16T22:33:43;96959.00;;;16.50
33267;BMP180;19638;49.080;11.896;2022-10-16T22:37:46;96957.00;;;16.50
33267;BMP180;19638;49.080;11.896;2022-10-16T22:42:22;96967.00;;;16.40
33267;BMP180;19638;49.080;11.896;2022-10-16T22:46:27;96963.00;;;16.30
33267;BMP180;19638;49.080;11.896;2022-10-16T22:50:31;96971.00;;;16.20
33267;BMP180;19638;49.080;11.896;2022-10-16T22:55:08;96961.00;;;16.00
33267;BMP180;19638;49.080;11.896;2022-10-16T22:59:13;96962.00;;;15.90
33267;BMP180;19638;49.080;11.896;2022-10-16T23:03:47;96967.00;;;15.70
33267;BMP180;19638;49.080;11.896;2022-10-16T23:07:50;96966.00;;;15.50
33267;BMP180;19638;49.080;11.896;2022-10-16T23:11:53;96966.00;;;15.30
33267;BMP180;19638;49.080;11.896;2022-10-16T23:15:57;96971.00;;;15.20
33267;BMP180;19638;49.080;11.896;2022-10-16T23:20:00;96972.00;;;15.10
33267;BMP180;19638;49.080;11.896;2022-10-16T23:24:34;96969.00;;;15.00
33267;BMP180;19638;49.080;11.896;2022-10-16T23:28:38;96970.00;;;14.90
33267;BMP180;19638;49.080;11.896;2022-10-16T23:32:43;96972.00;;;14.90
33267;BMP180;19638;49.080;11.896;2022-10-16T23:36:46;96965.00;;;14.90
33267;BMP180;19638;49.080;11.896;2022-10-16T23:40:50;96971.00;;;14.90
33267;BMP180;19638;49.080;11.896;2022-10-16T23:44:53;96965.00;;;14.90
33267;BMP180;19638;49.080;11.896;2022-10-16T23:49:31;96966.00;;;14.80
33267;BMP180;19638;49.080;11.896;2022-10-16T23:53:34;96965.00;;;14.70
33267;BMP180;19638;49.080;11.896;2022-10-16T23:58:11;96963.00;;;14.70
